sensor_id;sensor_type;location;lat;lon;timestamp;temperature;humidity
54082;DHT22;39986;50.770;0.266;2023-11-19T00:00:29;13.20;99.90
54082;DHT22;39986;50.770;0.266;2023-11-19T00:02:54;13.20;99.90
54082;DHT22;39986;50.770;0.266;2023-11-19T00:05:20;13.10;99.90
54082;DHT22;39986;50.770;0.266;2023-11-19T00:07:46;13.00;99.90
54082;DHT22;39986;50.770;0.266;2023-11-19T00:10:12;13.20;99.90
54082;DHT22;39986;50.770;0.266;2023-11-19T00:12:39;13.10;99.90
54082;DHT22;39986;50.770;0.266;2023-11-19T00:15:05;13.10;99.90
54082;DHT22;39986;50.770;0.266;2023-11-19T00:17:32;13.10;99.90
54082;DHT22;39986;50.770;0.266;2023-11-19T00:19:57;13.00;99.90
54082;DHT22;39986;50.770;0.266;2023-11-19T00:22:22;13.10;99.90
54082;DHT22;39986;50.770;0.266;2023-11-19T00:27:15;13.00;99.90
54082;DHT22;39986;50.770;0.266;2023-11-19T00:29:41;13.10;99.90
54082;DHT22;39986;50.770;0.266;2023-11-19T00:34:32;13.20;99.90
54082;DHT22;39986;50.770;0.266;2023-11-19T00:36:58;12.90;99.90
54082;DHT22;39986;50.770;0.266;2023-11-19T00:44:15;13.00;99.90
54082;DHT22;39986;50.770;0.266;2023-11-19T00:51:33;13.10;99.90
54082;DHT22;39986;50.770;0.266;2023-11-19T00:53:58;12.90;99.90
54082;DHT22;39986;50.770;0.266;2023-11-19T00:56:24;13.00;99.90
54082;DHT22;39986;50.770;0.266;2023-11-19T00:58:50;13.10;99.90
54082;DHT22;39986;50.770;0.266;2023-11-19T01:01:15;13.10;99.90
54082;DHT22;39986;50.770;0.266;2023-11-19T01:03:41;13.00;99.90
54082;DHT22;39986;50.770;0.266;2023-11-19T01:08:33;13.00;99.90
54082;DHT22;39986;50.770;0.266;2023-11-19T01:11:01;13.00;99.90
54082;DHT22;39986;50.770;0.266;2023-11-19T01:15:53;13.00;99.90
54082;DHT22;39986;50.770;0.266;2023-11-19T01:18:18;12.90;99.90
54082;DHT22;39986;50.770;0.266;2023-11-19T01:25:36;13.00;99.90
54082;DHT22;39986;50.770;0.266;2023-11-19T01:28:03;13.10;99.90
54082;DHT22;39986;50.770;0.266;2023-11-19T01:30:29;13.00;99.90
54082;DHT22;39986;50.770;0.266;2023-11-19T01:32:56;13.10;99.90
54082;DHT22;39986;50.770;0.266;2023-11-19T01:37:48;13.00;99.90
54082;DHT22;39986;50.770;0.266;2023-11-19T01:45:06;13.00;99.90
54082;DHT22;39986;50.770;0.266;2023-11-19T01:49:59;13.00;99.90
54082;DHT22;39986;50.770;0.266;2023-11-19T01:52:25;13.00;99.90
54082;DHT22;39986;50.770;0.266;2023-11-19T01:54:51;12.90;99.90
54082;DHT22;39986;50.770;0.266;2023-11-19T01:57:18;12.90;99.90
54082;DHT22;39986;50.770;0.266;2023-11-19T02:02:10;12.80;99.90
54082;DHT22;39986;50.770;0.266;2023-11-19T02:07:03;13.00;99.90
54082;DHT22;39986;50.770;0.266;2023-11-19T02:09:29;13.10;99.90
54082;DHT22;39986;50.770;0.266;2023-11-19T02:14:25;12.90;99.90
54082;DHT22;39986;50.770;0.266;2023-11-19T02:16:51;12.90;99.90
54082;DHT22;39986;50.770;0.266;2023-11-19T02:31:29;12.90;99.90
54082;DHT22;39986;50.770;0.266;2023-11-19T02:33:55;12.90;99.90
54082;DHT22;39986;50.770;0.266;2023-11-19T02:36:20;12.90;99.90
54082;DHT22;39986;50.770;0.266;2023-11-19T02:38:46;13.00;99.90
54082;DHT22;39986;50.770;0.266;2023-11-19T02:48:34;13.10;99.90
54082;DHT22;39986;50.770;0.266;2023-11-19T02:51:05;13.00;99.90
54082;DHT22;39986;50.770;0.266;2023-11-19T02:53:34;13.20;99.90
54082;DHT22;39986;50.770;0.266;2023-11-19T02:56:00;13.20;99.90
54082;DHT22;39986;50.770;0.266;2023-11-19T03:01:03;13.30;99.90
54082;DHT22;39986;50.770;0.266;2023-11-19T03:08:32;13.20;99.90
54082;DHT22;39986;50.770;0.266;2023-11-19T03:10:58;13.10;99.90
54082;DHT22;39986;50.770;0.266;2023-11-19T03:18:19;13.10;99.90
54082;DHT22;39986;50.770;0.266;2023-11-19T03:23:10;13.10;99.90
54082;DHT22;39986;50.770;0.266;2023-11-19T03:40:12;13.40;99.90
54082;DHT22;39986;50.770;0.266;2023-11-19T03:42:38;13.20;99.90
54082;DHT22;39986;50.770;0.266;2023-11-19T03:49:56;13.10;99.90
54082;DHT22;39986;50.770;0.266;2023-11-19T04:11:51;13.20;99.90
54082;DHT22;39986;50.770;0.266;2023-11-19T04:14:17;13.20;99.90
54082;DHT22;39986;50.770;0.266;2023-11-19T04:19:10;13.10;99.90
54082;DHT22;39986;50.770;0.266;2023-11-19T04:21:35;13.20;99.90
54082;DHT22;39986;50.770;0.266;2023-11-19T04:24:01;13.10;99.90
54082;DHT22;39986;50.770;0.266;2023-11-19T04:26:26;13.10;99.90
54082;DHT22;39986;50.770;0.266;2023-11-19T04:28:52;13.20;99.90
54082;DHT22;39986;50.770;0.266;2023-11-19T04:36:10;13.20;99.90
54082;DHT22;39986;50.770;0.266;2023-11-19T04:38:35;13.30;99.90
54082;DHT22;39986;50.770;0.266;2023-11-19T04:41:01;13.20;99.90
54082;DHT22;39986;50.770;0.266;2023-11-19T04:43:26;13.30;99.90
54082;DHT22;39986;50.770;0.266;2023-11-19T04:45:52;13.30;99.90
54082;DHT22;39986;50.770;0.266;2023-11-19T04:50:43;13.30;99.90
54082;DHT22;39986;50.770;0.266;2023-11-19T04:53:09;13.40;99.90
54082;DHT22;39986;50.770;0.266;2023-11-19T04:55:35;13.30;99.90
54082;DHT22;39986;50.770;0.266;2023-11-19T04:58:01;13.30;99.90
54082;DHT22;39986;50.770;0.266;2023-11-19T05:00:26;13.30;99.90
54082;DHT22;39986;50.770;0.266;2023-11-19T05:07:43;13.40;99.90
54082;DHT22;39986;50.770;0.266;2023-11-19T05:10:09;13.20;99.90
54082;DHT22;39986;50.770;0.266;2023-11-19T05:12:35;13.30;99.90
54082;DHT22;39986;50.770;0.266;2023-11-19T05:19:52;13.20;99.90
54082;DHT22;39986;50.770;0.266;2023-11-19T05:39:23;13.00;99.90
54082;DHT22;39986;50.770;0.266;2023-11-19T05:44:16;13.20;99.90
54082;DHT22;39986;50.770;0.266;2023-11-19T05:46:42;13.10;99.90
54082;DHT22;39986;50.770;0.266;2023-11-19T05:49:08;13.00;99.90
54082;DHT22;39986;50.770;0.266;2023-11-19T05:51:40;13.10;99.90
54082;DHT22;39986;50.770;0.266;2023-11-19T05:56:32;13.20;99.90
54082;DHT22;39986;50.770;0.266;2023-11-19T05:58:58;13.30;99.90
54082;DHT22;39986;50.770;0.266;2023-11-19T06:01:26;13.20;99.90
54082;DHT22;39986;50.770;0.266;2023-11-19T06:06:18;13.30;99.90
54082;DHT22;39986;50.770;0.266;2023-11-19T06:08:44;13.40;99.90
54082;DHT22;39986;50.770;0.266;2023-11-19T06:11:10;13.30;99.90
54082;DHT22;39986;50.770;0.266;2023-11-19T06:13:40;13.30;99.90
54082;DHT22;39986;50.770;0.266;2023-11-19T06:16:05;13.20;99.90
54082;DHT22;39986;50.770;0.266;2023-11-19T06:23:23;13.20;99.90
54082;DHT22;39986;50.770;0.266;2023-11-19T06:30:40;13.20;99.90
54082;DHT22;39986;50.770;0.266;2023-11-19T06:33:06;13.30;99.90
54082;DHT22;39986;50.770;0.266;2023-11-19T06:40:28;13.30;99.90
54082;DHT22;39986;50.770;0.266;2023-11-19T06:42:54;13.40;99.90
54082;DHT22;39986;50.770;0.266;2023-11-19T06:45:20;13.40;99.90
54082;DHT22;39986;50.770;0.266;2023-11-19T06:52:37;13.40;99.90
54082;DHT22;39986;50.770;0.266;2023-11-19T06:55:03;13.30;99.90
54082;DHT22;39986;50.770;0.266;2023-11-19T06:57:29;13.30;99.90
54082;DHT22;39986;50.770;0.266;2023-11-19T06:59:57;13.50;99.90
54082;DHT22;39986;50.770;0.266;2023-11-19T07:02:22;13.30;99.90
54082;DHT22;39986;50.770;0.266;2023-11-19T07:07:14;13.30;99.90
54082;DHT22;39986;50.770;0.266;2023-11-19T07:09:40;13.30;99.90
54082;DHT22;39986;50.770;0.266;2023-11-19T07:16:58;13.10;99.90
54082;DHT22;39986;50.770;0.266;2023-11-19T07:31:33;13.40;99.90
54082;DHT22;39986;50.770;0.266;2023-11-19T07:36:27;13.40;99.90
54082;DHT22;39986;50.770;0.266;2023-11-19T07:38:52;13.20;99.90
54082;DHT22;39986;50.770;0.266;2023-11-19T07:41:18;13.30;99.90
54082;DHT22;39986;50.770;0.266;2023-11-19T07:48:40;13.50;99.90
54082;DHT22;39986;50.770;0.266;2023-11-19T07:53:33;13.30;99.90
54082;DHT22;39986;50.770;0.266;2023-11-19T07:56:00;13.20;99.90
54082;DHT22;39986;50.770;0.266;2023-11-19T07:58:25;13.20;99.90
54082;DHT22;39986;50.770;0.266;2023-11-19T08:05:47;13.20;99.90
54082;DHT22;39986;50.770;0.266;2023-11-19T08:10:38;13.30;99.90
54082;DHT22;39986;50.770;0.266;2023-11-19T08:13:05;13.60;99.90
54082;DHT22;39986;50.770;0.266;2023-11-19T08:15:31;13.50;99.90
54082;DHT22;39986;50.770;0.266;2023-11-19T08:17:56;13.50;99.90
54082;DHT22;39986;50.770;0.266;2023-11-19T08:22:48;13.60;99.90
54082;DHT22;39986;50.770;0.266;2023-11-19T08:30:06;13.50;99.90
54082;DHT22;39986;50.770;0.266;2023-11-19T08:42:16;13.20;99.90
54082;DHT22;39986;50.770;0.266;2023-11-19T08:44:42;13.10;99.90
54082;DHT22;39986;50.770;0.266;2023-11-19T08:47:09;12.70;99.90
54082;DHT22;39986;50.770;0.266;2023-11-19T08:56:53;12.60;99.90
54082;DHT22;39986;50.770;0.266;2023-11-19T09:01:44;12.70;99.90
54082;DHT22;39986;50.770;0.266;2023-11-19T09:04:10;12.80;99.90
54082;DHT22;39986;50.770;0.266;2023-11-19T09:06:36;12.90;99.90
54082;DHT22;39986;50.770;0.266;2023-11-19T09:09:01;13.30;99.90
54082;DHT22;39986;50.770;0.266;2023-11-19T09:11:31;13.60;99.90
54082;DHT22;39986;50.770;0.266;2023-11-19T09:13:57;13.90;99.90
54082;DHT22;39986;50.770;0.266;2023-11-19T09:16:22;14.00;99.90
54082;DHT22;39986;50.770;0.266;2023-11-19T09:18:48;14.00;99.90
54082;DHT22;39986;50.770;0.266;2023-11-19T09:21:13;13.90;99.90
54082;DHT22;39986;50.770;0.266;2023-11-19T09:23:39;14.10;99.90
54082;DHT22;39986;50.770;0.266;2023-11-19T09:26:05;14.00;99.90
54082;DHT22;39986;50.770;0.266;2023-11-19T09:28:31;13.90;99.90
54082;DHT22;39986;50.770;0.266;2023-11-19T09:30:57;13.70;99.90
54082;DHT22;39986;50.770;0.266;2023-11-19T09:33:24;13.60;99.90
54082;DHT22;39986;50.770;0.266;2023-11-19T09:35:50;13.70;99.90
54082;DHT22;39986;50.770;0.266;2023-11-19T09:38:16;13.50;99.90
54082;DHT22;39986;50.770;0.266;2023-11-19T09:43:08;14.00;99.90
54082;DHT22;39986;50.770;0.266;2023-11-19T09:45:49;14.20;99.90
54082;DHT22;39986;50.770;0.266;2023-11-19T09:50:41;14.20;99.90
54082;DHT22;39986;50.770;0.266;2023-11-19T09:55:32;13.70;99.90
54082;DHT22;39986;50.770;0.266;2023-11-19T10:00:26;13.40;99.90
54082;DHT22;39986;50.770;0.266;2023-11-19T10:02:52;13.40;99.90
54082;DHT22;39986;50.770;0.266;2023-11-19T10:10:09;14.60;99.90
54082;DHT22;39986;50.770;0.266;2023-11-19T10:15:05;17.00;99.90
54082;DHT22;39986;50.770;0.266;2023-11-19T10:17:35;17.60;99.90
54082;DHT22;39986;50.770;0.266;2023-11-19T10:20:00;17.80;99.90
54082;DHT22;39986;50.770;0.266;2023-11-19T10:22:27;17.40;99.90
54082;DHT22;39986;50.770;0.266;2023-11-19T10:24:53;17.30;99.90
54082;DHT22;39986;50.770;0.266;2023-11-19T10:27:18;17.60;99.90
54082;DHT22;39986;50.770;0.266;2023-11-19T10:29:47;18.30;99.90
54082;DHT22;39986;50.770;0.266;2023-11-19T10:32:13;18.50;99.90
54082;DHT22;39986;50.770;0.266;2023-11-19T10:37:07;17.70;99.90
54082;DHT22;39986;50.770;0.266;2023-11-19T10:39:51;16.80;99.90
54082;DHT22;39986;50.770;0.266;2023-11-19T10:42:17;16.00;99.90
54082;DHT22;39986;50.770;0.266;2023-11-19T10:44:42;15.50;99.90
54082;DHT22;39986;50.770;0.266;2023-11-19T10:47:08;14.90;99.90
54082;DHT22;39986;50.770;0.266;2023-11-19T10:49:34;14.80;99.90
54082;DHT22;39986;50.770;0.266;2023-11-19T10:52:00;15.60;99.90
54082;DHT22;39986;50.770;0.266;2023-11-19T10:56:58;17.10;99.90
54082;DHT22;39986;50.770;0.266;2023-11-19T11:01:50;17.40;99.90
54082;DHT22;39986;50.770;0.266;2023-11-19T11:04:24;18.10;99.90
54082;DHT22;39986;50.770;0.266;2023-11-19T11:09:19;19.00;99.90
54082;DHT22;39986;50.770;0.266;2023-11-19T11:11:48;18.90;99.90
54082;DHT22;39986;50.770;0.266;2023-11-19T11:14:15;19.30;99.90
54082;DHT22;39986;50.770;0.266;2023-11-19T11:16:44;19.10;99.90
54082;DHT22;39986;50.770;0.266;2023-11-19T11:19:11;19.60;99.90
54082;DHT22;39986;50.770;0.266;2023-11-19T11:21:38;19.70;99.90
54082;DHT22;39986;50.770;0.266;2023-11-19T11:26:37;20.10;99.90
54082;DHT22;39986;50.770;0.266;2023-11-19T11:31:39;20.40;99.90
54082;DHT22;39986;50.770;0.266;2023-11-19T11:36:37;20.60;99.90
54082;DHT22;39986;50.770;0.266;2023-11-19T11:39:03;18.80;99.90
54082;DHT22;39986;50.770;0.266;2023-11-19T11:43:58;16.80;99.90
54082;DHT22;39986;50.770;0.266;2023-11-19T11:48:59;15.80;99.90
54082;DHT22;39986;50.770;0.266;2023-11-19T11:53:52;15.10;99.90
54082;DHT22;39986;50.770;0.266;2023-11-19T11:56:17;14.90;99.90
54082;DHT22;39986;50.770;0.266;2023-11-19T11:58:43;14.50;99.90
54082;DHT22;39986;50.770;0.266;2023-11-19T12:01:14;14.10;99.90
54082;DHT22;39986;50.770;0.266;2023-11-19T12:03:48;13.70;99.90
54082;DHT22;39986;50.770;0.266;2023-11-19T12:06:15;13.70;99.90
54082;DHT22;39986;50.770;0.266;2023-11-19T12:08:40;13.70;99.90
54082;DHT22;39986;50.770;0.266;2023-11-19T12:11:06;14.10;99.90
54082;DHT22;39986;50.770;0.266;2023-11-19T12:13:46;14.00;99.90
54082;DHT22;39986;50.770;0.266;2023-11-19T12:18:38;13.90;99.90
54082;DHT22;39986;50.770;0.266;2023-11-19T12:21:04;13.90;99.90
54082;DHT22;39986;50.770;0.266;2023-11-19T12:23:31;13.90;99.90
54082;DHT22;39986;50.770;0.266;2023-11-19T12:25:57;14.00;99.90
54082;DHT22;39986;50.770;0.266;2023-11-19T12:33:18;14.10;99.90
54082;DHT22;39986;50.770;0.266;2023-11-19T12:35:45;14.00;99.90
54082;DHT22;39986;50.770;0.266;2023-11-19T12:40:44;13.70;99.90
54082;DHT22;39986;50.770;0.266;2023-11-19T12:43:10;13.70;99.90
54082;DHT22;39986;50.770;0.266;2023-11-19T12:45:36;13.50;99.90
54082;DHT22;39986;50.770;0.266;2023-11-19T12:48:05;13.40;99.90
54082;DHT22;39986;50.770;0.266;2023-11-19T12:50:49;13.60;99.90
54082;DHT22;39986;50.770;0.266;2023-11-19T12:53:15;13.70;99.90
54082;DHT22;39986;50.770;0.266;2023-11-19T12:58:06;13.80;99.90
54082;DHT22;39986;50.770;0.266;2023-11-19T13:00:32;13.70;99.90
54082;DHT22;39986;50.770;0.266;2023-11-19T13:02:57;13.90;99.90
54082;DHT22;39986;50.770;0.266;2023-11-19T13:05:27;13.80;99.90
54082;DHT22;39986;50.770;0.266;2023-11-19T13:08:02;13.80;99.90
54082;DHT22;39986;50.770;0.266;2023-11-19T13:10:30;13.80;99.90
54082;DHT22;39986;50.770;0.266;2023-11-19T13:13:14;13.90;99.90
54082;DHT22;39986;50.770;0.266;2023-11-19T13:18:05;17.90;99.90
54082;DHT22;39986;50.770;0.266;2023-11-19T13:20:32;14.50;99.90
54082;DHT22;39986;50.770;0.266;2023-11-19T13:22:59;14.80;99.90
54082;DHT22;39986;50.770;0.266;2023-11-19T13:25:25;15.10;99.90
54082;DHT22;39986;50.770;0.266;2023-11-19T13:27:51;14.90;99.90
54082;DHT22;39986;50.770;0.266;2023-11-19T13:30:16;14.70;99.90
54082;DHT22;39986;50.770;0.266;2023-11-19T13:32:42;14.80;99.90
54082;DHT22;39986;50.770;0.266;2023-11-19T13:35:09;14.60;99.90
54082;DHT22;39986;50.770;0.266;2023-11-19T13:37:35;14.60;99.90
54082;DHT22;39986;50.770;0.266;2023-11-19T13:40:01;14.50;99.90
54082;DHT22;39986;50.770;0.266;2023-11-19T13:42:26;14.20;99.90
54082;DHT22;39986;50.770;0.266;2023-11-19T13:44:52;14.30;99.90
54082;DHT22;39986;50.770;0.266;2023-11-19T13:47:18;14.10;99.90
54082;DHT22;39986;50.770;0.266;2023-11-19T13:49:46;14.00;99.90
54082;DHT22;39986;50.770;0.266;2023-11-19T13:52:12;14.00;99.90
54082;DHT22;39986;50.770;0.266;2023-11-19T13:54:38;14.10;99.90
54082;DHT22;39986;50.770;0.266;2023-11-19T13:59:30;13.90;99.90
54082;DHT22;39986;50.770;0.266;2023-11-19T14:01:56;13.80;99.90
54082;DHT22;39986;50.770;0.266;2023-11-19T14:06:48;13.80;99.90
54082;DHT22;39986;50.770;0.266;2023-11-19T14:09:13;13.80;99.90
54082;DHT22;39986;50.770;0.266;2023-11-19T14:11:39;13.60;99.90
54082;DHT22;39986;50.770;0.266;2023-11-19T14:14:04;13.80;99.90
54082;DHT22;39986;50.770;0.266;2023-11-19T14:16:30;13.80;99.90
54082;DHT22;39986;50.770;0.266;2023-11-19T14:18:56;13.60;99.90
54082;DHT22;39986;50.770;0.266;2023-11-19T14:23:48;13.60;99.90
54082;DHT22;39986;50.770;0.266;2023-11-19T14:26:13;13.50;99.90
54082;DHT22;39986;50.770;0.266;2023-11-19T14:28:39;13.40;99.90
54082;DHT22;39986;50.770;0.266;2023-11-19T14:33:30;13.40;99.90
54082;DHT22;39986;50.770;0.266;2023-11-19T14:35:56;13.50;99.90
54082;DHT22;39986;50.770;0.266;2023-11-19T14:40:48;13.70;99.90
54082;DHT22;39986;50.770;0.266;2023-11-19T14:48:06;13.50;99.90
54082;DHT22;39986;50.770;0.266;2023-11-19T14:50:32;13.50;99.90
54082;DHT22;39986;50.770;0.266;2023-11-19T14:52:57;13.30;99.90
54082;DHT22;39986;50.770;0.266;2023-11-19T14:55:23;13.30;99.90
54082;DHT22;39986;50.770;0.266;2023-11-19T14:57:49;13.30;99.90
54082;DHT22;39986;50.770;0.266;2023-11-19T15:00:16;13.30;99.90
54082;DHT22;39986;50.770;0.266;2023-11-19T15:02:42;13.30;99.90
54082;DHT22;39986;50.770;0.266;2023-11-19T15:07:35;13.20;99.90
54082;DHT22;39986;50.770;0.266;2023-11-19T15:10:01;13.20;99.90
54082;DHT22;39986;50.770;0.266;2023-11-19T15:12:30;13.10;99.90
54082;DHT22;39986;50.770;0.266;2023-11-19T15:14:55;13.10;99.90
54082;DHT22;39986;50.770;0.266;2023-11-19T15:17:21;12.80;99.90
54082;DHT22;39986;50.770;0.266;2023-11-19T15:19:47;12.70;99.90
54082;DHT22;39986;50.770;0.266;2023-11-19T15:24:39;12.80;99.90
54082;DHT22;39986;50.770;0.266;2023-11-19T15:27:07;12.50;99.90
54082;DHT22;39986;50.770;0.266;2023-11-19T15:29:34;12.70;99.90
54082;DHT22;39986;50.770;0.266;2023-11-19T15:36:52;12.70;99.90
54082;DHT22;39986;50.770;0.266;2023-11-19T15:39:17;12.70;99.90
54082;DHT22;39986;50.770;0.266;2023-11-19T15:41:43;12.80;99.90
54082;DHT22;39986;50.770;0.266;2023-11-19T15:46:35;12.80;99.90
54082;DHT22;39986;50.770;0.266;2023-11-19T15:51:26;12.80;99.90
54082;DHT22;39986;50.770;0.266;2023-11-19T15:53:52;13.00;99.90
54082;DHT22;39986;50.770;0.266;2023-11-19T16:03:36;12.90;99.90
54082;DHT22;39986;50.770;0.266;2023-11-19T16:06:02;13.00;99.90
54082;DHT22;39986;50.770;0.266;2023-11-19T16:13:20;13.00;99.90
54082;DHT22;39986;50.770;0.266;2023-11-19T16:15:47;13.10;99.90
54082;DHT22;39986;50.770;0.266;2023-11-19T16:20:39;13.10;99.90
54082;DHT22;39986;50.770;0.266;2023-11-19T16:25:30;13.20;99.90
54082;DHT22;39986;50.770;0.266;2023-11-19T16:27:56;13.20;99.90
54082;DHT22;39986;50.770;0.266;2023-11-19T16:30:22;13.10;99.90
54082;DHT22;39986;50.770;0.266;2023-11-19T16:32:48;13.10;99.90
54082;DHT22;39986;50.770;0.266;2023-11-19T16:35:15;13.20;99.90
54082;DHT22;39986;50.770;0.266;2023-11-19T16:37:41;13.20;99.90
54082;DHT22;39986;50.770;0.266;2023-11-19T16:40:07;13.30;99.90
54082;DHT22;39986;50.770;0.266;2023-11-19T16:42:37;13.20;99.90
54082;DHT22;39986;50.770;0.266;2023-11-19T16:47:31;13.10;99.90
54082;DHT22;39986;50.770;0.266;2023-11-19T16:49:56;13.20;99.90
54082;DHT22;39986;50.770;0.266;2023-11-19T16:52:22;13.30;99.90
54082;DHT22;39986;50.770;0.266;2023-11-19T16:54:48;13.10;99.90
54082;DHT22;39986;50.770;0.266;2023-11-19T16:57:13;13.20;99.90
54082;DHT22;39986;50.770;0.266;2023-11-19T16:59:39;13.30;99.90
54082;DHT22;39986;50.770;0.266;2023-11-19T17:02:05;13.10;99.90
54082;DHT22;39986;50.770;0.266;2023-11-19T17:04:30;13.20;99.90
54082;DHT22;39986;50.770;0.266;2023-11-19T17:09:22;13.20;99.90
54082;DHT22;39986;50.770;0.266;2023-11-19T17:16:41;13.10;99.90
54082;DHT22;39986;50.770;0.266;2023-11-19T17:19:06;13.30;99.90
54082;DHT22;39986;50.770;0.266;2023-11-19T17:26:23;13.10;99.90
54082;DHT22;39986;50.770;0.266;2023-11-19T17:28:49;13.20;99.90
54082;DHT22;39986;50.770;0.266;2023-11-19T17:31:14;13.20;99.90
54082;DHT22;39986;50.770;0.266;2023-11-19T17:33:42;13.20;99.90
54082;DHT22;39986;50.770;0.266;2023-11-19T17:36:08;13.30;99.90
54082;DHT22;39986;50.770;0.266;2023-11-19T17:40:59;13.30;99.90
54082;DHT22;39986;50.770;0.266;2023-11-19T17:43:24;13.20;99.90
54082;DHT22;39986;50.770;0.266;2023-11-19T17:45:50;13.20;99.90
54082;DHT22;39986;50.770;0.266;2023-11-19T17:48:16;13.30;99.90
54082;DHT22;39986;50.770;0.266;2023-11-19T17:50:41;13.30;99.90
54082;DHT22;39986;50.770;0.266;2023-11-19T17:53:07;13.20;99.90
54082;DHT22;39986;50.770;0.266;2023-11-19T17:55:32;13.20;99.90
54082;DHT22;39986;50.770;0.266;2023-11-19T17:57:58;13.10;99.90
54082;DHT22;39986;50.770;0.266;2023-11-19T18:00:23;13.40;99.90
54082;DHT22;39986;50.770;0.266;2023-11-19T18:02:49;13.10;99.90
54082;DHT22;39986;50.770;0.266;2023-11-19T18:05:17;13.00;99.90
54082;DHT22;39986;50.770;0.266;2023-11-19T18:07:43;13.00;99.90
54082;DHT22;39986;50.770;0.266;2023-11-19T18:15:02;12.90;99.90
54082;DHT22;39986;50.770;0.266;2023-11-19T18:17:28;12.90;99.90
54082;DHT22;39986;50.770;0.266;2023-11-19T18:19:54;13.00;99.90
54082;DHT22;39986;50.770;0.266;2023-11-19T18:22:20;13.00;99.90
54082;DHT22;39986;50.770;0.266;2023-11-19T18:24:45;12.90;99.90
54082;DHT22;39986;50.770;0.266;2023-11-19T18:27:11;12.90;99.90
54082;DHT22;39986;50.770;0.266;2023-11-19T18:29:36;12.80;99.90
54082;DHT22;39986;50.770;0.266;2023-11-19T18:32:02;12.80;99.90
54082;DHT22;39986;50.770;0.266;2023-11-19T18:39:21;12.70;99.90
54082;DHT22;39986;50.770;0.266;2023-11-19T18:41:46;12.70;99.90
54082;DHT22;39986;50.770;0.266;2023-11-19T18:44:12;12.70;99.90
54082;DHT22;39986;50.770;0.266;2023-11-19T18:49:04;12.60;99.90
54082;DHT22;39986;50.770;0.266;2023-11-19T18:51:31;12.60;99.90
54082;DHT22;39986;50.770;0.266;2023-11-19T18:53:56;12.50;99.90
54082;DHT22;39986;50.770;0.266;2023-11-19T18:56:23;12.40;99.90
54082;DHT22;39986;50.770;0.266;2023-11-19T18:58:48;12.40;99.90
54082;DHT22;39986;50.770;0.266;2023-11-19T19:01:14;12.50;99.90
54082;DHT22;39986;50.770;0.266;2023-11-19T19:10:59;12.50;99.90
54082;DHT22;39986;50.770;0.266;2023-11-19T19:15:51;12.40;99.90
54082;DHT22;39986;50.770;0.266;2023-11-19T19:18:17;12.30;99.90
54082;DHT22;39986;50.770;0.266;2023-11-19T19:20:45;12.40;99.90
54082;DHT22;39986;50.770;0.266;2023-11-19T19:23:11;12.40;99.90
54082;DHT22;39986;50.770;0.266;2023-11-19T19:25:37;12.40;99.90
54082;DHT22;39986;50.770;0.266;2023-11-19T19:30:31;12.40;99.90
54082;DHT22;39986;50.770;0.266;2023-11-19T19:35:23;12.20;99.90
54082;DHT22;39986;50.770;0.266;2023-11-19T19:37:53;12.20;99.90
54082;DHT22;39986;50.770;0.266;2023-11-19T19:40:19;12.30;99.90
54082;DHT22;39986;50.770;0.266;2023-11-19T19:42:44;12.40;99.90
54082;DHT22;39986;50.770;0.266;2023-11-19T19:45:10;12.20;99.90
54082;DHT22;39986;50.770;0.266;2023-11-19T19:47:36;12.30;99.90
54082;DHT22;39986;50.770;0.266;2023-11-19T19:50:03;12.30;99.90
54082;DHT22;39986;50.770;0.266;2023-11-19T19:52:28;12.20;99.90
54082;DHT22;39986;50.770;0.266;2023-11-19T19:54:57;12.20;99.90
54082;DHT22;39986;50.770;0.266;2023-11-19T20:02:15;12.20;99.90
54082;DHT22;39986;50.770;0.266;2023-11-19T20:04:40;12.30;99.90
54082;DHT22;39986;50.770;0.266;2023-11-19T20:09:35;12.40;99.90
54082;DHT22;39986;50.770;0.266;2023-11-19T20:12:00;12.30;99.90
54082;DHT22;39986;50.770;0.266;2023-11-19T20:16:54;12.50;99.90
54082;DHT22;39986;50.770;0.266;2023-11-19T20:19:19;12.40;99.90
54082;DHT22;39986;50.770;0.266;2023-11-19T20:24:11;12.50;99.90
54082;DHT22;39986;50.770;0.266;2023-11-19T20:26:36;12.40;99.90
54082;DHT22;39986;50.770;0.266;2023-11-19T20:29:03;12.60;99.90
54082;DHT22;39986;50.770;0.266;2023-11-19T20:31:29;12.50;99.90
54082;DHT22;39986;50.770;0.266;2023-11-19T20:33:54;12.70;99.90
54082;DHT22;39986;50.770;0.266;2023-11-19T20:36:19;12.50;99.90
54082;DHT22;39986;50.770;0.266;2023-11-19T20:41:11;12.70;99.90
54082;DHT22;39986;50.770;0.266;2023-11-19T20:43:36;12.70;99.90
54082;DHT22;39986;50.770;0.266;2023-11-19T20:46:02;12.70;99.90
54082;DHT22;39986;50.770;0.266;2023-11-19T20:53:21;12.60;99.90
54082;DHT22;39986;50.770;0.266;2023-11-19T20:55:46;12.60;99.90
54082;DHT22;39986;50.770;0.266;2023-11-19T20:58:12;12.60;99.90
54082;DHT22;39986;50.770;0.266;2023-11-19T21:00:38;12.70;99.90
54082;DHT22;39986;50.770;0.266;2023-11-19T21:03:11;12.60;99.90
54082;DHT22;39986;50.770;0.266;2023-11-19T21:08:03;12.70;99.90
54082;DHT22;39986;50.770;0.266;2023-11-19T21:10:29;12.70;99.90
54082;DHT22;39986;50.770;0.266;2023-11-19T21:12:54;12.60;99.90
54082;DHT22;39986;50.770;0.266;2023-11-19T21:15:20;12.60;99.90
54082;DHT22;39986;50.770;0.266;2023-11-19T21:17:46;12.60;99.90
54082;DHT22;39986;50.770;0.266;2023-11-19T21:20:11;12.40;99.90
54082;DHT22;39986;50.770;0.266;2023-11-19T21:25:04;12.60;99.90
54082;DHT22;39986;50.770;0.266;2023-11-19T21:27:29;12.60;99.90
54082;DHT22;39986;50.770;0.266;2023-11-19T21:32:22;12.50;99.90
54082;DHT22;39986;50.770;0.266;2023-11-19T21:39:40;12.30;99.90
54082;DHT22;39986;50.770;0.266;2023-11-19T21:44:31;12.60;99.90
54082;DHT22;39986;50.770;0.266;2023-11-19T21:51:49;11.90;99.90
54082;DHT22;39986;50.770;0.266;2023-11-19T21:54:15;11.90;99.90
54082;DHT22;39986;50.770;0.266;2023-11-19T21:56:41;11.60;99.90
54082;DHT22;39986;50.770;0.266;2023-11-19T21:59:06;11.80;99.90
54082;DHT22;39986;50.770;0.266;2023-11-19T22:03:58;11.70;99.90
54082;DHT22;39986;50.770;0.266;2023-11-19T22:06:23;11.70;99.90
54082;DHT22;39986;50.770;0.266;2023-11-19T22:08:49;11.90;99.90
54082;DHT22;39986;50.770;0.266;2023-11-19T22:13:40;11.60;99.90
54082;DHT22;39986;50.770;0.266;2023-11-19T22:16:07;11.70;99.90
54082;DHT22;39986;50.770;0.266;2023-11-19T22:23:26;11.60;99.90
54082;DHT22;39986;50.770;0.266;2023-11-19T22:28:17;11.60;99.90
54082;DHT22;39986;50.770;0.266;2023-11-19T22:33:09;11.60;99.90
54082;DHT22;39986;50.770;0.266;2023-11-19T22:35:35;11.50;99.90
54082;DHT22;39986;50.770;0.266;2023-11-19T22:38:00;11.50;99.90
54082;DHT22;39986;50.770;0.266;2023-11-19T22:40:26;11.50;99.90
54082;DHT22;39986;50.770;0.266;2023-11-19T22:42:51;11.60;99.90
54082;DHT22;39986;50.770;0.266;2023-11-19T22:45:17;11.50;99.90
54082;DHT22;39986;50.770;0.266;2023-11-19T22:50:09;11.60;99.90